createdAt,value
2018-09-12T00:00:10.432Z,7.93
2018-09-12T00:02:37.957Z,3.50
2018-09-12T00:05:05.568Z,5.90
2018-09-12T00:07:33.105Z,4.60
2018-09-12T00:10:00.593Z,3.03
2018-09-12T00:12:28.165Z,2.87
2018-09-12T00:14:55.766Z,4.43
2018-09-12T00:17:23.293Z,4.53
2018-09-12T00:19:50.793Z,3.90
2018-09-12T00:22:18.697Z,6.53
2018-09-12T00:24:46.282Z,3.67
2018-09-12T00:27:13.821Z,4.00
2018-09-12T00:29:41.365Z,6.47
2018-09-12T00:32:08.854Z,3.90
2018-09-12T00:34:36.371Z,2.70
2018-09-12T00:37:03.913Z,4.80
2018-09-12T00:39:31.431Z,3.90
2018-09-12T00:41:58.949Z,4.90
2018-09-12T00:44:26.455Z,5.00
2018-09-12T00:46:53.970Z,4.40
2018-09-12T00:49:21.448Z,5.13
2018-09-12T00:51:48.982Z,5.63
2018-09-12T00:54:16.533Z,6.17
2018-09-12T00:56:44.038Z,5.43
2018-09-12T00:59:11.576Z,3.83
2018-09-12T01:01:39.075Z,4.47
2018-09-12T01:04:06.860Z,3.93
2018-09-12T01:06:34.397Z,7.87
2018-09-12T01:09:01.899Z,5.10
2018-09-12T01:11:29.523Z,4.23
2018-09-12T01:13:57.035Z,3.90
2018-09-12T01:16:24.593Z,4.97
2018-09-12T01:18:52.107Z,6.00
2018-09-12T01:21:19.621Z,3.97
2018-09-12T01:23:47.130Z,7.10
2018-09-12T01:26:14.618Z,7.53
2018-09-12T01:28:42.237Z,8.80
2018-09-12T01:31:09.741Z,5.37
2018-09-12T01:33:37.258Z,5.77
2018-09-12T01:36:04.823Z,5.13
2018-09-12T01:38:32.338Z,7.33
2018-09-12T01:40:59.925Z,6.07
2018-09-12T01:43:27.454Z,10.10
2018-09-12T01:45:55.038Z,6.00
2018-09-12T01:48:22.510Z,8.13
2018-09-12T01:50:50.019Z,5.97
2018-09-12T01:53:17.490Z,5.23
2018-09-12T01:55:45.016Z,4.20
2018-09-12T01:58:12.591Z,6.13
2018-09-12T02:00:41.220Z,6.97
2018-09-12T02:03:09.145Z,6.30
2018-09-12T02:05:37.311Z,5.90
2018-09-12T02:08:04.873Z,4.87
2018-09-12T02:10:32.406Z,5.83
2018-09-12T02:12:59.933Z,6.27
2018-09-12T02:15:27.448Z,4.07
2018-09-12T02:17:54.942Z,7.70
2018-09-12T02:20:22.534Z,6.03
2018-09-12T02:22:50.036Z,5.63
2018-09-12T02:25:17.571Z,7.17
2018-09-12T02:27:45.168Z,6.40
2018-09-12T02:30:12.706Z,10.57
2018-09-12T02:32:40.219Z,6.47
2018-09-12T02:35:07.764Z,6.70
2018-09-12T02:37:35.282Z,4.67
2018-09-12T02:40:02.914Z,7.80
2018-09-12T02:42:30.866Z,7.70
2018-09-12T02:44:58.372Z,7.60
2018-09-12T02:47:31.700Z,7.83
2018-09-12T02:49:59.202Z,8.77
2018-09-12T02:52:26.841Z,7.63
2018-09-12T02:54:54.370Z,6.20
2018-09-12T02:57:21.868Z,9.23
2018-09-12T02:59:49.416Z,7.73
2018-09-12T03:02:16.952Z,5.33
2018-09-12T03:04:44.454Z,5.67
2018-09-12T03:07:12.044Z,14.67
2018-09-12T03:09:39.624Z,5.37
2018-09-12T03:12:07.143Z,5.20
2018-09-12T03:14:34.661Z,6.00
2018-09-12T03:17:02.314Z,9.80
2018-09-12T03:19:29.830Z,9.23
2018-09-12T03:21:57.333Z,8.23
2018-09-12T03:24:24.959Z,14.40
2018-09-12T03:26:52.471Z,9.40
2018-09-12T03:29:20.042Z,10.20
2018-09-12T03:31:47.625Z,9.37
2018-09-12T03:34:15.126Z,9.87
2018-09-12T03:36:42.619Z,11.53
2018-09-12T03:39:11.276Z,14.77
2018-09-12T03:41:39.334Z,9.27
2018-09-12T03:44:06.890Z,10.97
2018-09-12T03:46:34.467Z,13.67
2018-09-12T03:49:01.989Z,8.73
2018-09-12T03:51:29.481Z,8.50
2018-09-12T03:53:57.001Z,6.97
2018-09-12T03:56:24.496Z,6.70
2018-09-12T03:58:52.064Z,9.50
2018-09-12T04:01:19.615Z,9.03
2018-09-12T04:03:47.232Z,12.47
2018-09-12T04:06:14.741Z,13.93
2018-09-12T04:08:42.307Z,9.10
2018-09-12T04:11:09.806Z,11.33
2018-09-12T04:13:37.323Z,10.37
2018-09-12T04:16:04.900Z,11.10
2018-09-12T04:18:32.464Z,11.23
2018-09-12T04:20:59.968Z,8.50
2018-09-12T04:23:27.513Z,8.57
2018-09-12T04:25:55.018Z,13.17
2018-09-12T04:28:22.575Z,11.67
2018-09-12T04:30:50.178Z,13.40
2018-09-12T04:33:17.678Z,16.80
2018-09-12T04:35:45.184Z,18.00
2018-09-12T04:38:12.730Z,14.10
2018-09-12T04:40:40.268Z,11.97
2018-09-12T04:43:07.846Z,14.53
2018-09-12T04:45:35.374Z,15.17
2018-09-12T04:48:02.878Z,12.47
2018-09-12T04:50:30.406Z,12.53
2018-09-12T04:52:58.000Z,13.07
2018-09-12T04:55:25.522Z,16.83
2018-09-12T04:57:53.230Z,13.43
2018-09-12T05:00:20.814Z,14.93
2018-09-12T05:02:48.299Z,19.20
2018-09-12T05:05:15.820Z,15.80
2018-09-12T05:07:43.342Z,13.43
2018-09-12T05:10:10.922Z,13.00
2018-09-12T05:12:38.424Z,13.67
2018-09-12T05:15:06.134Z,13.83
2018-09-12T05:17:33.706Z,15.67
2018-09-12T05:20:01.308Z,18.40
2018-09-12T05:22:28.839Z,17.23
2018-09-12T05:24:56.373Z,16.80
2018-09-12T05:27:24.092Z,18.77
2018-09-12T05:29:51.615Z,12.20
2018-09-12T05:32:19.115Z,14.10
2018-09-12T05:34:46.641Z,12.40
2018-09-12T05:37:14.158Z,17.43
2018-09-12T05:39:41.691Z,14.80
2018-09-12T05:42:09.224Z,11.10
2018-09-12T05:44:36.725Z,10.47
2018-09-12T05:47:04.332Z,10.70
2018-09-12T05:49:31.879Z,12.57
2018-09-12T05:51:59.396Z,9.77
2018-09-12T05:54:26.914Z,12.43
2018-09-12T05:56:54.440Z,10.87
2018-09-12T05:59:21.956Z,12.10
2018-09-12T06:01:49.469Z,12.83
2018-09-12T06:04:17.014Z,10.97
2018-09-12T06:06:44.533Z,12.30
2018-09-12T06:09:12.087Z,15.70
2018-09-12T06:11:39.618Z,14.77
2018-09-12T06:14:07.230Z,13.70
2018-09-12T06:16:34.701Z,10.50
2018-09-12T06:19:02.293Z,12.23
2018-09-12T06:21:29.804Z,10.67
2018-09-12T06:23:57.324Z,12.53
2018-09-12T06:26:25.026Z,7.87
2018-09-12T06:28:52.555Z,7.67
2018-09-12T06:31:20.108Z,14.70
2018-09-12T06:33:47.613Z,9.43
2018-09-12T06:36:15.104Z,11.17
2018-09-12T06:38:42.609Z,7.87
2018-09-12T06:41:10.135Z,10.80
2018-09-12T06:43:37.609Z,11.33
2018-09-12T06:46:05.110Z,8.60
2018-09-12T06:48:32.618Z,7.57
2018-09-12T06:51:00.134Z,9.60
2018-09-12T06:53:27.624Z,10.77
2018-09-12T06:55:55.128Z,7.47
2018-09-12T06:58:22.610Z,9.17
2018-09-12T07:00:50.125Z,11.27
2018-09-12T07:03:17.662Z,10.63
2018-09-12T07:05:45.185Z,12.60
2018-09-12T07:08:12.686Z,9.47
2018-09-12T07:10:40.230Z,8.00
2018-09-12T07:13:07.730Z,10.70
2018-09-12T07:15:35.254Z,7.97
2018-09-12T07:18:02.816Z,8.13
2018-09-12T07:20:30.342Z,10.07
2018-09-12T07:22:57.860Z,9.67
2018-09-12T07:25:25.364Z,9.03
2018-09-12T07:27:52.886Z,8.40
2018-09-12T07:30:20.465Z,5.43
2018-09-12T07:32:48.160Z,9.77
2018-09-12T07:35:15.692Z,9.63
2018-09-12T07:37:43.215Z,9.70
2018-09-12T07:40:10.828Z,10.73
2018-09-12T07:42:38.326Z,9.63
2018-09-12T07:45:06.234Z,8.77
2018-09-12T07:47:33.797Z,7.30
2018-09-12T07:50:01.322Z,10.27
2018-09-12T07:52:28.834Z,5.93
2018-09-12T07:54:56.397Z,8.50
2018-09-12T07:57:24.119Z,10.17
2018-09-12T07:59:51.695Z,10.43
2018-09-12T08:02:19.277Z,10.93
2018-09-12T08:04:46.795Z,7.17
2018-09-12T08:07:14.349Z,9.50
2018-09-12T08:09:41.905Z,5.83
2018-09-12T08:12:09.815Z,12.50
2018-09-12T08:14:37.369Z,10.43
2018-09-12T08:17:05.284Z,8.03
2018-09-12T08:19:32.907Z,7.90
2018-09-12T08:22:00.425Z,5.23
2018-09-12T08:24:27.953Z,7.60
2018-09-12T08:26:55.461Z,8.93
2018-09-12T08:29:22.987Z,9.97
2018-09-12T08:31:50.516Z,8.40
2018-09-12T08:34:18.103Z,6.10
2018-09-12T08:36:45.644Z,8.20
2018-09-12T08:39:13.625Z,9.20
2018-09-12T08:41:41.526Z,9.77
2018-09-12T08:44:09.593Z,9.50
2018-09-12T08:46:38.210Z,5.77
2018-09-12T08:49:05.729Z,6.90
2018-09-12T08:51:33.527Z,8.10
2018-09-12T08:54:01.074Z,11.43
2018-09-12T08:56:28.585Z,7.73
2018-09-12T08:58:56.341Z,8.97
2018-09-12T09:01:23.977Z,4.97
2018-09-12T09:03:51.475Z,11.33
2018-09-12T09:06:18.974Z,6.73
2018-09-12T09:08:46.607Z,7.90
2018-09-12T09:11:14.126Z,5.70
2018-09-12T09:13:41.647Z,6.33
2018-09-12T09:16:09.165Z,9.93
2018-09-12T09:18:36.682Z,4.03
2018-09-12T09:21:04.183Z,2.47
2018-09-12T09:23:31.797Z,4.63
2018-09-12T09:25:59.337Z,2.90
2018-09-12T09:28:26.887Z,1.67
2018-09-12T09:30:54.436Z,2.10
2018-09-12T09:33:21.944Z,1.80
2018-09-12T09:35:49.480Z,3.57
2018-09-12T09:38:17.009Z,2.87
2018-09-12T09:40:44.513Z,3.10
2018-09-12T09:43:12.003Z,2.13
2018-09-12T09:45:39.534Z,4.10
2018-09-12T09:48:07.133Z,2.97
2018-09-12T09:50:34.577Z,4.93
2018-09-12T10:02:58.697Z,9.50
2018-09-12T10:05:31.926Z,8.83
2018-09-12T10:08:05.119Z,8.60
2018-09-12T10:10:32.653Z,6.13
2018-09-12T10:13:00.217Z,4.43
2018-09-12T10:15:27.725Z,4.43
2018-09-12T10:17:55.243Z,3.80
2018-09-12T10:20:22.782Z,4.23
2018-09-12T10:22:50.365Z,5.30
2018-09-12T10:25:17.873Z,3.37
2018-09-12T10:27:45.401Z,2.37
2018-09-12T10:30:13.001Z,1.60
2018-09-12T10:32:40.515Z,1.60
2018-09-12T10:35:08.041Z,1.07
2018-09-12T10:37:35.563Z,1.47
2018-09-12T10:40:03.194Z,0.90
2018-09-12T10:42:30.699Z,0.43
2018-09-12T10:44:58.232Z,0.30
2018-09-12T10:47:25.780Z,0.50
2018-09-12T10:49:53.748Z,1.97
2018-09-12T10:52:21.337Z,0.67
2018-09-12T10:54:48.877Z,1.00
2018-09-12T10:57:16.511Z,1.17
2018-09-12T10:59:44.038Z,2.30
2018-09-12T11:02:11.529Z,1.37
2018-09-12T11:04:39.105Z,3.40
2018-09-12T11:07:06.653Z,4.20
2018-09-12T11:09:34.186Z,1.70
2018-09-12T11:12:01.883Z,1.60
2018-09-12T11:14:29.389Z,1.60
2018-09-12T11:16:56.975Z,1.63
2018-09-12T11:19:24.528Z,1.67
2018-09-12T11:21:52.422Z,1.40
2018-09-12T11:24:19.945Z,2.30
2018-09-12T11:26:47.476Z,1.70
2018-09-12T11:29:15.029Z,1.63
2018-09-12T11:31:42.534Z,1.93
2018-09-12T11:34:10.117Z,3.97
2018-09-12T11:36:37.649Z,3.07
2018-09-12T11:39:07.994Z,1.80
2018-09-12T11:41:35.506Z,1.73
2018-09-12T11:44:03.078Z,1.50
2018-09-12T11:46:30.601Z,4.17
2018-09-12T11:48:58.184Z,1.70
2018-09-12T11:51:25.760Z,2.17
2018-09-12T11:53:53.293Z,1.63
2018-09-12T11:56:21.232Z,2.73
2018-09-12T11:58:48.746Z,2.23
2018-09-12T12:01:16.330Z,2.57
2018-09-12T12:03:43.867Z,3.87
2018-09-12T12:06:11.472Z,2.63
2018-09-12T12:08:38.965Z,3.03
2018-09-12T12:11:06.458Z,2.20
2018-09-12T12:13:34.031Z,2.40
2018-09-12T12:16:01.568Z,2.47
2018-09-12T12:18:29.170Z,4.67
2018-09-12T12:20:56.736Z,2.10
2018-09-12T12:23:24.258Z,5.00
2018-09-12T12:25:51.865Z,3.20
2018-09-12T12:28:19.378Z,4.87
2018-09-12T12:30:46.996Z,3.17
2018-09-12T12:33:14.615Z,6.13
2018-09-12T12:35:42.157Z,4.63
2018-09-12T12:38:09.760Z,5.00
2018-09-12T12:40:37.290Z,3.57
2018-09-12T12:43:04.880Z,6.53
2018-09-12T12:45:32.492Z,3.00
2018-09-12T12:48:00.036Z,4.33
2018-09-12T12:50:27.637Z,2.60
2018-09-12T12:52:55.167Z,2.70
2018-09-12T12:55:22.701Z,4.90
2018-09-12T12:57:50.221Z,3.40
2018-09-12T13:00:17.728Z,4.37
2018-09-12T13:02:45.270Z,4.77
2018-09-12T13:05:12.827Z,4.33
2018-09-12T13:07:40.312Z,4.37
2018-09-12T13:10:07.865Z,4.87
2018-09-12T13:12:35.387Z,5.23
2018-09-12T13:15:02.975Z,6.70
2018-09-12T13:17:30.534Z,6.40
2018-09-12T13:19:58.077Z,5.93
2018-09-12T13:22:25.576Z,5.93
2018-09-12T13:24:53.125Z,5.87
2018-09-12T13:27:20.663Z,4.63
2018-09-12T13:29:48.168Z,7.07
2018-09-12T13:32:15.702Z,7.30
2018-09-12T13:34:43.189Z,5.63
2018-09-12T13:37:10.716Z,4.57
2018-09-12T13:39:38.252Z,9.70
2018-09-12T13:42:06.053Z,5.67
2018-09-12T13:44:33.667Z,4.00
2018-09-12T13:47:01.211Z,7.80
2018-09-12T13:49:28.708Z,3.70
2018-09-12T13:51:56.244Z,4.90
2018-09-12T13:54:23.797Z,3.87
2018-09-12T13:56:51.411Z,2.50
2018-09-12T13:59:18.924Z,9.70
2018-09-12T14:01:46.461Z,2.77
2018-09-12T14:04:14.021Z,2.00
2018-09-12T14:06:41.550Z,1.90
2018-09-12T14:09:10.190Z,2.27
2018-09-12T14:11:37.757Z,2.10
2018-09-12T14:14:05.346Z,1.93
2018-09-12T14:16:32.904Z,1.57
2018-09-12T14:19:00.451Z,1.77
2018-09-12T14:21:27.985Z,0.80
2018-09-12T14:23:55.510Z,1.10
2018-09-12T14:26:23.063Z,1.90
2018-09-12T14:28:50.577Z,4.53
2018-09-12T14:31:18.315Z,0.50
2018-09-12T14:33:46.882Z,0.73
2018-09-12T14:36:14.395Z,1.40
2018-09-12T14:38:41.925Z,1.23
2018-09-12T14:41:09.501Z,4.67
2018-09-12T14:43:37.006Z,1.27
2018-09-12T14:46:04.689Z,3.13
2018-09-12T14:48:32.218Z,2.00
2018-09-12T14:50:59.761Z,1.07
2018-09-12T14:53:27.273Z,2.50
2018-09-12T14:55:54.789Z,4.23
2018-09-12T14:58:22.302Z,1.47
2018-09-12T15:00:52.903Z,1.17
2018-09-12T15:03:20.927Z,2.57
2018-09-12T15:05:48.527Z,1.83
2018-09-12T15:08:16.117Z,3.67
2018-09-12T15:10:43.664Z,1.40
2018-09-12T15:13:11.175Z,1.90
2018-09-12T15:15:38.725Z,1.60
2018-09-12T15:18:06.248Z,3.57
2018-09-12T15:20:33.772Z,1.40
2018-09-12T15:23:01.287Z,3.13
2018-09-12T15:25:28.813Z,1.27
2018-09-12T15:27:56.386Z,2.63
2018-09-12T15:30:23.903Z,2.33
2018-09-12T15:32:51.478Z,2.37
2018-09-12T15:35:18.970Z,1.40
2018-09-12T15:37:46.471Z,5.93
2018-09-12T15:40:13.987Z,1.60
2018-09-12T15:48:26.587Z,1.77
2018-09-12T15:50:54.066Z,2.80
2018-09-12T15:53:21.583Z,3.40
2018-09-12T15:55:49.142Z,1.83
2018-09-12T15:58:16.744Z,2.23
2018-09-12T16:00:44.180Z,1.80
2018-09-12T16:03:11.712Z,1.77
2018-09-12T16:05:39.224Z,2.30
2018-09-12T16:08:06.710Z,2.03
2018-09-12T16:10:34.278Z,3.00
2018-09-12T16:13:01.792Z,1.97
2018-09-12T16:15:29.358Z,2.23
2018-09-12T16:17:56.883Z,1.60
2018-09-12T16:20:24.396Z,2.30
2018-09-12T16:22:51.930Z,1.77
2018-09-12T16:25:19.471Z,3.37
2018-09-12T16:27:46.990Z,1.90
2018-09-12T16:30:14.548Z,1.80
2018-09-12T16:32:42.207Z,2.70
2018-09-12T16:35:09.641Z,2.10
2018-09-12T16:37:37.169Z,2.03
2018-09-12T16:40:04.838Z,2.43
2018-09-12T16:42:32.353Z,2.10
2018-09-12T16:44:59.926Z,2.03
2018-09-12T16:47:27.502Z,2.80
2018-09-12T16:49:55.081Z,3.23
2018-09-12T16:52:22.569Z,2.57
2018-09-12T16:54:51.135Z,2.73
2018-09-12T16:57:17.931Z,3.77
2018-09-12T16:59:45.457Z,3.07
2018-09-12T17:02:13.022Z,2.43
2018-09-12T17:04:40.519Z,4.53
2018-09-12T17:07:08.052Z,5.97
2018-09-12T17:09:35.590Z,3.60
2018-09-12T17:12:03.110Z,8.53
2018-09-12T17:14:30.703Z,6.07
2018-09-12T17:16:58.247Z,3.23
2018-09-12T17:19:25.769Z,7.60
2018-09-12T17:21:53.274Z,2.60
2018-09-12T17:24:20.857Z,2.70
2018-09-12T17:26:48.361Z,4.03
2018-09-12T17:29:15.867Z,2.97
2018-09-12T17:31:43.462Z,4.03
2018-09-12T17:34:11.494Z,3.77
2018-09-12T17:36:39.032Z,4.47
2018-09-12T17:39:07.349Z,3.70
2018-09-12T17:41:34.890Z,4.17
2018-09-12T17:44:02.518Z,4.37
2018-09-12T17:46:30.066Z,5.27
2018-09-12T17:48:57.603Z,6.10
2018-09-12T17:51:25.112Z,4.90
2018-09-12T17:53:52.658Z,6.03
2018-09-12T17:56:20.167Z,5.90
2018-09-12T17:58:48.280Z,5.40
2018-09-12T18:01:15.852Z,6.00
2018-09-12T18:03:43.358Z,6.60
2018-09-12T18:06:11.096Z,5.57
2018-09-12T18:08:38.624Z,8.53
2018-09-12T18:11:06.167Z,5.30
2018-09-12T18:13:33.698Z,5.87
2018-09-12T18:16:01.342Z,8.93
2018-09-12T18:18:28.884Z,7.03
2018-09-12T18:20:56.395Z,8.47
2018-09-12T18:23:23.937Z,6.13
2018-09-12T18:25:51.491Z,5.47
2018-09-12T18:28:19.003Z,6.83
2018-09-12T18:30:46.575Z,8.13
2018-09-12T18:33:14.131Z,8.77
2018-09-12T18:35:41.662Z,8.40
2018-09-12T18:38:09.254Z,6.00
2018-09-12T18:40:36.780Z,7.23
2018-09-12T18:43:04.413Z,6.13
2018-09-12T18:45:31.897Z,6.87
2018-09-12T18:47:59.454Z,8.77
2018-09-12T18:50:26.965Z,5.67
2018-09-12T18:52:54.653Z,9.37
2018-09-12T18:55:22.181Z,6.93
2018-09-12T18:57:49.763Z,5.13
2018-09-12T19:00:17.341Z,9.03
2018-09-12T19:02:44.886Z,8.40
2018-09-12T19:05:12.561Z,9.33
2018-09-12T19:07:40.088Z,13.90
2018-09-12T19:10:07.653Z,9.17
2018-09-12T19:12:35.190Z,11.03
2018-09-12T19:15:02.744Z,6.93
2018-09-12T19:17:30.255Z,6.63
2018-09-12T19:19:57.777Z,8.60
2018-09-12T19:22:25.305Z,6.03
2018-09-12T19:24:52.846Z,7.73
2018-09-12T19:27:20.390Z,9.47
2018-09-12T19:29:47.928Z,9.63
2018-09-12T19:32:15.469Z,8.83
2018-09-12T19:34:42.992Z,12.73
2018-09-12T19:37:10.584Z,6.37
2018-09-12T19:39:38.104Z,10.53
2018-09-12T19:42:05.670Z,8.07
2018-09-12T19:44:33.194Z,7.17
2018-09-12T19:47:00.741Z,6.07
2018-09-12T19:49:28.279Z,7.17
2018-09-12T19:51:55.827Z,7.17
2018-09-12T19:54:23.339Z,6.93
2018-09-12T19:56:50.833Z,7.30
2018-09-12T19:59:18.357Z,6.10
2018-09-12T20:01:45.884Z,8.47
2018-09-12T20:04:13.530Z,10.03
2018-09-12T20:06:41.211Z,9.33
2018-09-12T20:09:10.206Z,6.40
2018-09-12T20:11:37.833Z,9.57
2018-09-12T20:14:05.447Z,9.63
2018-09-12T20:16:32.939Z,9.00
2018-09-12T20:19:00.475Z,11.57
2018-09-12T20:21:28.027Z,7.87
2018-09-12T20:23:55.677Z,7.83
2018-09-12T20:26:23.097Z,9.23
2018-09-12T20:28:51.110Z,9.17
2018-09-12T20:31:18.803Z,7.33
2018-09-12T20:33:46.585Z,9.73
2018-09-12T20:36:14.119Z,8.87
2018-09-12T20:38:41.621Z,8.37
2018-09-12T20:41:09.117Z,9.10
2018-09-12T20:43:36.813Z,8.67
2018-09-12T20:46:04.367Z,9.33
2018-09-12T20:48:31.885Z,9.53
2018-09-12T20:50:59.439Z,7.87
2018-09-12T20:53:27.015Z,11.27
2018-09-12T20:55:54.503Z,9.87
2018-09-12T20:58:22.105Z,9.30
2018-09-12T21:00:49.629Z,9.07
2018-09-12T21:03:17.133Z,8.37
2018-09-12T21:05:44.667Z,10.57
2018-09-12T21:08:12.188Z,10.80
2018-09-12T21:10:39.713Z,9.83
2018-09-12T21:13:07.267Z,14.77
2018-09-12T21:15:34.799Z,7.93
2018-09-12T21:18:02.359Z,6.90
2018-09-12T21:20:29.917Z,9.17
2018-09-12T21:22:57.439Z,10.07
2018-09-12T21:25:24.965Z,9.17
2018-09-12T21:27:52.511Z,9.03
2018-09-12T21:30:20.035Z,8.67
2018-09-12T21:32:47.677Z,9.37
2018-09-12T21:35:15.219Z,8.73
2018-09-12T21:37:42.738Z,9.10
2018-09-12T21:40:10.271Z,8.57
2018-09-12T21:42:37.841Z,9.03
2018-09-12T21:45:05.400Z,8.63
2018-09-12T21:47:32.974Z,6.87
2018-09-12T21:50:00.517Z,9.00
2018-09-12T21:52:28.041Z,10.17
2018-09-12T21:54:55.550Z,8.83
2018-09-12T21:57:23.075Z,7.67
2018-09-12T21:59:50.609Z,6.90
2018-09-12T22:02:18.517Z,9.00
2018-09-12T22:04:46.054Z,6.17
2018-09-12T22:07:13.562Z,7.03
2018-09-12T22:09:41.057Z,8.63
2018-09-12T22:12:08.619Z,5.63
2018-09-12T22:14:36.109Z,5.83
2018-09-12T22:17:03.625Z,5.70
2018-09-12T22:19:31.165Z,5.63
2018-09-12T22:21:58.654Z,5.43
2018-09-12T22:24:26.189Z,5.83
2018-09-12T22:26:53.736Z,6.70
2018-09-12T22:29:21.233Z,6.30
2018-09-12T22:31:48.816Z,8.77
2018-09-12T22:34:16.346Z,6.97
2018-09-12T22:36:43.836Z,7.40
2018-09-12T22:39:11.766Z,6.97
2018-09-12T22:41:39.779Z,6.47
2018-09-12T22:44:07.299Z,6.90
2018-09-12T22:46:34.820Z,6.57
2018-09-12T22:49:02.371Z,6.93
2018-09-12T22:51:29.897Z,9.57
2018-09-12T22:53:57.487Z,10.73
2018-09-12T22:56:25.182Z,8.43
2018-09-12T22:58:52.700Z,12.23
2018-09-12T23:01:20.206Z,9.30
2018-09-12T23:03:47.735Z,11.73
2018-09-12T23:06:15.244Z,10.40
2018-09-12T23:08:42.902Z,12.53
2018-09-12T23:11:10.413Z,12.53
2018-09-12T23:13:37.932Z,9.70
2018-09-12T23:16:05.497Z,8.67
2018-09-12T23:18:33.022Z,8.90
2018-09-12T23:21:00.622Z,7.53
2018-09-12T23:23:28.128Z,11.60
2018-09-12T23:25:55.656Z,9.47
2018-09-12T23:28:23.215Z,12.73
2018-09-12T23:30:50.717Z,9.13
2018-09-12T23:33:18.266Z,9.20
2018-09-12T23:35:45.762Z,12.80
2018-09-12T23:38:13.305Z,11.90
2018-09-12T23:40:40.840Z,9.23
2018-09-12T23:43:08.608Z,10.10
2018-09-12T23:45:36.157Z,12.50
2018-09-12T23:48:03.760Z,9.67
2018-09-12T23:50:31.296Z,9.90
2018-09-12T23:52:58.784Z,12.40
2018-09-12T23:55:26.289Z,10.93
2018-09-12T23:57:53.832Z,10.73
